Woodruff, Wisconsin
Current Conditions -  °F | °C
As of 3:35 AM on Friday 24 Oct 2014 (Local Time) from KARV Reporting Station
Haze Haze  
Wind Chill: 41°   Ceiling: 200
Heat Index: 45°   Visibility: 1mi
Dew Point: 44°   Wind: 7mph
Humidity: 97%   Direction: 240°WSW
Pressure: 29.99"   Gusts: NA
Location:  45.9°N, 89.7°W
Report Text: KARV 240835Z AUTO 24006KT 1SM BR OVC002 07/07 A2999 RMK AO2 T00710066
Loading
Personal Weather Stations






























Interactive Weather Map
Tropical Storm Tracking
New forecast layout! Learn more

10-Day Weather Forecast

Advertisements
Track Severe Weather on mobile